• Join FlightAware (Why Join?)
  • Login
  • US Flag 
09:55PM EDT


 

Airport Tracker/Info


-or-


 

Live Flight TrackerFlight Track Log ✈ JBU33 ✈ 23-Apr-2013 ✈ KBTV - KJFK

Flight Track Log - Related Links

Times and Time Zones

All times are in EDT time to prevent confusion due to time zone crossing. See the JBU33 flight status page for this flight to view local times or setup timezone preferences in your user account.

Time Position Orientation Groundspeed Altitude Reporting Facility
EDT Latitude Longitude Course Direction KTS MPH feet Rate Location/Type
02:28PM 44.3444 -73.1686 196° South 254 292 6,700  Level Boston Center
02:29PM 44.1680 -73.2620 195° South  Level FlightAware Approximate
02:29PM 44.2756 -73.1997 198° South 259 298 9,600  Level Boston Center
02:30PM 44.0929 -73.2902 195° South  Level FlightAware Approximate
02:31PM 44.0174 -73.3165 194° South  Level FlightAware Approximate
02:31PM 44.1064 -73.2669 196° South 318 366 14,500  Level Boston Center
02:32PM 43.9417 -73.3417 193° South  Level FlightAware Approximate
02:32PM 44.0142 -73.3033 196° South 344 396 17,000  Level Boston Center
02:33PM 43.8667 -73.3701 196° South  Level FlightAware Approximate
02:33PM 43.9203 -73.3422 197° South 354 407 19,200  Level Boston Center
02:34PM 43.8094 -73.3867 196° South 365 420 21,700 2,220 Climbing Boston Center
02:35PM 43.7069 -73.4281 196° South 375 432 23,700 1,920 Climbing Boston Center
02:36PM 43.6025 -73.4694 196° South 386 444 25,600 1,140 Climbing Boston Center
02:37PM 43.5000 -73.5078 195° South 386 444 26,000 180 Climbing Boston Center
02:38PM 43.3975 -73.5486 196° South 386 444 26,000  Level Boston Center
02:39PM 43.2950 -73.5897 196° South 386 444 26,000  Level Boston Center
02:40PM 43.1925 -73.6306 196° South 386 444 26,000  Level Boston Center
02:41PM 43.0983 -73.6683 196° South 387 445 26,000  Level Boston Center
02:42PM 42.9997 -73.7092 197° South 387 445 26,000  Level Boston Center
02:43PM 42.8953 -73.7467 195° South 387 445 26,000  Level Boston Center
02:44PM 42.7947 -73.7869 196° South 387 445 26,000  Level Boston Center
02:45PM 42.6903 -73.8100 189° South 382 440 26,000  Level Boston Center
02:46PM 42.5733 -73.8131 181° South 382 440 26,000  Level Boston Center
02:47PM 42.4881 -73.8139 180° South 382 440 26,000  Level Boston Center
02:48PM 42.3608 -73.8169 181° South 382 440 26,000  Level Boston Center
02:49PM 42.2525 -73.8172 180° South 382 440 26,000  Level Boston Center
02:50PM 42.1481 -73.8206 181° South 382 440 26,000  Level Boston Center
02:51PM 42.0478 -73.8464 191° South 382 440 26,000 -180 Level Boston Center
02:52PM 41.9472 -73.8833 195° South 377 434 25,700 -1,020 Descending Boston Center
02:53PM 41.8469 -73.9144 193° South 377 434 24,000 -1,680 Descending Boston Center
02:54PM 41.7547 -73.9456 194° South 377 434 22,400 -1,380 Descending Boston Center
02:56PM 41.5694 -74.0014 193° South 380 437 20,000 -840 Descending New York Center
02:57PM 41.4831 -74.0331 195° South 345 397 20,000  Level New York Center
02:58PM 41.3947 -74.0622 194° South 340 391 20,000  Level New York Center
02:59PM 41.3161 -74.1244 211° Southwest 334 384 20,000  Level New York Center
03:00PM 41.2633 -74.2156 232° Southwest 322 371 20,000  Level New York Center
03:01PM 41.2411 -74.3331 256° West 303 349 20,000  Level New York Center
03:02PM 41.1703 -74.4067 218° Southwest 314 361 20,000 -480 Level New York Center
03:03PM 41.0894 -74.4572 205° Southwest 314 361 19,100 -540 Descending New York Center
03:04PM 41.0253 -74.3742 136° Southeast 256 295 19,000 -120 Descending New York Center
03:04PM 41.0000 -74.3167 120° Southeast 342 394 19,000  Level New York TRACON
03:05PM 40.9500 -74.2167 123° Southeast 342 394 19,000 -300 Level New York TRACON
03:06PM 40.9000 -74.1000 120° Southeast 339 390 18,500 -960 Descending New York TRACON
03:07PM 40.8500 -74.0000 123° Southeast 333 383 17,100 -1,620 Descending New York TRACON
03:08PM 40.8000 -73.9000 123° Southeast 323 372 15,300 -1,740 Descending New York TRACON
03:09PM 40.7667 -73.8000 114° Southeast 325 374 13,700 -1,200 Descending New York TRACON
03:10PM 40.7333 -73.6833 111° Southeast 327 376 13,000 -480 Descending New York TRACON
03:11PM 40.7000 -73.5833 114° Southeast 316 364 12,800 -660 Descending New York TRACON
03:12PM 40.6333 -73.5333 150° Southeast 313 360 11,700 -1,440 Descending New York TRACON
03:13PM 40.5500 -73.5167 171° South 303 349 10,000 -1,980 Descending New York TRACON
03:14PM 40.4833 -73.5667 210° Southwest 296 341 7,800 -2,400 Descending New York TRACON
03:15PM 40.4000 -73.6167 205° Southwest 291 335 5,300 -2,040 Descending New York TRACON
03:16PM 40.3667 -73.7000 242° Southwest 282 325 3,800 -1,140 Descending New York TRACON
03:17PM 40.3333 -73.7833 242° Southwest 230 265 3,100 -900 Descending New York TRACON
03:18PM 40.3333 -73.8500 270° West 206 237 2,000 -600 Descending New York TRACON
03:19PM 40.3667 -73.9000 311° West 174 200 2,000 -300 Level New York TRACON
03:20PM 40.4167 -73.9000 360° North 165 190 1,500 -300 Descending New York TRACON
03:21PM 40.4500 -73.9000 360° North 166 191 1,500  Level New York TRACON
03:22PM 40.5000 -73.8667 27° Northeast 160 184 1,500  Level New York TRACON
03:23PM 40.5333 -73.8500 21° North 161 185 1,500 -120 Level New York TRACON
03:24PM 40.5667 -73.8167 37° Northeast 161 185 1,300 -480 Descending New York TRACON
03:25PM 40.6000 -73.7833 37° Northeast 123 142 600 -720 Descending New York TRACON